createdAt,value
2023-03-26T00:02:58.166Z,99772.25
2023-03-26T00:08:01.790Z,99780.16
2023-03-26T00:13:04.272Z,99787.97
2023-03-26T00:18:06.508Z,99784.50
2023-03-26T00:23:09.835Z,99788.13
2023-03-26T00:28:12.011Z,99797.00
2023-03-26T00:33:14.837Z,99785.44
2023-03-26T00:38:18.165Z,99795.03
2023-03-26T00:43:22.055Z,99791.44
2023-03-26T00:48:31.568Z,99789.66
2023-03-26T00:53:47.862Z,99800.34
2023-03-26T00:58:50.551Z,99796.03
2023-03-26T01:04:06.889Z,99784.69
2023-03-26T01:09:16.108Z,99778.66
2023-03-26T01:14:20.882Z,99787.59
2023-03-26T01:19:29.146Z,99791.09
2023-03-26T01:24:32.292Z,99793.75
2023-03-26T01:29:41.952Z,99777.03
2023-03-26T01:34:53.475Z,99784.97
2023-03-26T01:39:59.009Z,99790.22
2023-03-26T01:45:07.215Z,99776.09
2023-03-26T01:50:10.674Z,99786.69
2023-03-26T01:55:14.530Z,99781.31
2023-03-26T02:00:24.676Z,99776.84
2023-03-26T02:05:31.986Z,99776.94
2023-03-26T02:10:40.000Z,99775.31
2023-03-26T02:15:55.602Z,99796.28
2023-03-26T02:20:57.843Z,99798.75
2023-03-26T02:26:01.777Z,99806.69
2023-03-26T02:31:04.445Z,99820.88
2023-03-26T02:36:07.807Z,99828.03
2023-03-26T02:41:11.363Z,99829.09
2023-03-26T02:46:13.292Z,99829.13
2023-03-26T02:51:15.662Z,99838.84
2023-03-26T02:56:19.101Z,99823.84
2023-03-26T03:01:21.670Z,99817.75
2023-03-26T03:06:23.761Z,99831.78
2023-03-26T03:11:26.831Z,99833.56
2023-03-26T03:16:30.496Z,99846.72
2023-03-26T03:21:32.595Z,99836.19
2023-03-26T03:26:36.133Z,99843.25
2023-03-26T03:31:38.166Z,99846.72
2023-03-26T03:36:40.357Z,99850.25
2023-03-26T03:41:43.882Z,99846.84
2023-03-26T03:46:46.039Z,99846.13
2023-03-26T03:51:48.132Z,99849.78
2023-03-26T03:56:51.571Z,99859.56
2023-03-26T04:01:54.266Z,99854.31
2023-03-26T04:06:55.969Z,99860.53
2023-03-26T04:12:02.482Z,99854.47
2023-03-26T04:17:04.301Z,99869.25
2023-03-26T04:22:06.895Z,99854.13
2023-03-26T04:27:15.027Z,99851.38
2023-03-26T04:32:23.976Z,99852.31
2023-03-26T04:37:28.444Z,99853.09
2023-03-26T04:42:31.749Z,99858.38
2023-03-26T04:47:34.357Z,99852.31
2023-03-26T04:52:37.555Z,99868.16
2023-03-26T04:57:43.086Z,99857.59
2023-03-26T05:02:45.228Z,99862.88
2023-03-26T05:07:47.441Z,99850.63
2023-03-26T05:12:50.722Z,99854.22
2023-03-26T05:17:52.833Z,99855.91
2023-03-26T05:22:55.156Z,99860.22
2023-03-26T05:27:58.734Z,99859.31
2023-03-26T05:33:00.979Z,99860.13
2023-03-26T05:38:02.837Z,99860.97
2023-03-26T05:43:06.457Z,99862.69
2023-03-26T05:48:08.753Z,99871.47
2023-03-26T05:53:10.731Z,99871.53
2023-03-26T05:58:14.573Z,99867.00
2023-03-26T06:03:16.896Z,99861.72
2023-03-26T06:08:19.122Z,99864.25
2023-03-26T06:13:22.824Z,99872.06
2023-03-26T06:18:25.714Z,99883.44
2023-03-26T06:23:27.891Z,99881.66
2023-03-26T06:28:31.378Z,99894.88
2023-03-26T06:33:33.144Z,99887.09
2023-03-26T06:38:34.884Z,99896.97
2023-03-26T06:43:38.228Z,99889.91
2023-03-26T06:48:41.238Z,99896.91
2023-03-26T06:53:43.344Z,99895.19
2023-03-26T06:58:46.745Z,99902.19
2023-03-26T07:03:49.162Z,99896.78
2023-03-26T07:08:51.500Z,99896.34
2023-03-26T07:13:55.296Z,99893.69
2023-03-26T07:18:57.369Z,99889.84
2023-03-26T07:23:59.639Z,99893.66
2023-03-26T07:29:10.834Z,99899.47
2023-03-26T07:34:38.422Z,99902.38
2023-03-26T07:39:47.791Z,99897.94
2023-03-26T07:45:02.131Z,99891.84
2023-03-26T07:50:05.322Z,99884.97
2023-03-26T07:55:08.548Z,99878.88
2023-03-26T08:00:17.652Z,99875.28
2023-03-26T08:05:26.928Z,99875.00
2023-03-26T08:10:36.742Z,99877.63
2023-03-26T08:15:47.329Z,99877.81
2023-03-26T08:20:51.389Z,99885.66
2023-03-26T08:26:01.021Z,99877.34
2023-03-26T08:31:10.727Z,99882.34
2023-03-26T08:36:12.639Z,99877.75
2023-03-26T08:41:48.349Z,99870.06
2023-03-26T08:47:11.589Z,99871.16
2023-03-26T08:52:51.343Z,99858.63
2023-03-26T08:58:31.403Z,99859.59
2023-03-26T09:04:09.235Z,99851.44
2023-03-26T09:09:38.130Z,99857.41
2023-03-26T09:15:07.178Z,99846.72
2023-03-26T09:20:45.997Z,99845.63
2023-03-26T09:26:05.956Z,99839.66
2023-03-26T09:31:26.716Z,99840.31
2023-03-26T09:36:54.301Z,99840.06
2023-03-26T09:42:08.004Z,99841.81
2023-03-26T09:47:30.692Z,99835.31
2023-03-26T09:53:00.189Z,99845.47
2023-03-26T09:58:15.246Z,99843.16
2023-03-26T10:03:28.881Z,99838.81
2023-03-26T10:09:02.792Z,99848.81
2023-03-26T10:14:13.975Z,99838.47
2023-03-26T10:19:34.591Z,99843.53
2023-03-26T10:25:02.372Z,99839.22
2023-03-26T10:30:48.809Z,99834.47
2023-03-26T10:36:02.553Z,99834.34
2023-03-26T10:41:13.884Z,99835.31
2023-03-26T10:46:50.144Z,99837.50
2023-03-26T10:51:56.124Z,99841.00
2023-03-26T10:57:02.587Z,99825.50
2023-03-26T11:02:29.284Z,99809.59
2023-03-26T11:07:39.816Z,99810.84
2023-03-26T11:12:47.311Z,99811.25
2023-03-26T11:17:58.876Z,99821.22
2023-03-26T11:23:16.353Z,99820.03
2023-03-26T11:28:30.038Z,99807.19
2023-03-26T11:33:37.624Z,99803.34
2023-03-26T11:38:51.219Z,99790.28
2023-03-26T11:43:57.492Z,99788.81
2023-03-26T11:49:01.308Z,99785.06
2023-03-26T11:54:05.540Z,99786.72
2023-03-26T11:59:14.421Z,99775.47
2023-03-26T12:04:18.631Z,99760.81
2023-03-26T12:09:21.003Z,99754.22
2023-03-26T12:14:28.039Z,99751.41
2023-03-26T12:19:37.787Z,99742.75
2023-03-26T12:24:39.931Z,99742.34
2023-03-26T12:29:43.236Z,99746.38
2023-03-26T12:34:45.182Z,99745.44
2023-03-26T12:40:07.910Z,99748.44
2023-03-26T12:45:14.228Z,99750.28
2023-03-26T12:50:16.808Z,99753.91
2023-03-26T12:55:36.144Z,99748.69
2023-03-26T13:00:49.436Z,99750.16
2023-03-26T13:06:07.575Z,99748.66
2023-03-26T13:11:18.372Z,99747.19
2023-03-26T13:16:30.249Z,99736.38
2023-03-26T13:21:45.041Z,99741.66
2023-03-26T13:26:59.550Z,99731.78
2023-03-26T13:32:12.719Z,99720.44
2023-03-26T13:37:20.018Z,99726.41
2023-03-26T13:42:37.291Z,99719.94
2023-03-26T13:47:45.568Z,99719.31
2023-03-26T13:52:52.849Z,99721.34
2023-03-26T13:58:01.845Z,99715.13
2023-03-26T14:03:12.972Z,99710.03
2023-03-26T14:08:21.986Z,99703.09
2023-03-26T14:13:29.356Z,99698.22
2023-03-26T14:18:41.093Z,99707.47
2023-03-26T14:24:06.295Z,99705.81
2023-03-26T14:29:29.833Z,99704.97
2023-03-26T14:34:47.214Z,99708.53
2023-03-26T14:40:00.937Z,99698.22
2023-03-26T14:45:39.149Z,99695.41
2023-03-26T14:50:58.489Z,99696.03
2023-03-26T14:56:38.629Z,99692.19
2023-03-26T15:02:11.054Z,99687.56
2023-03-26T15:08:00.610Z,99681.97
2023-03-26T15:13:26.044Z,99684.09
2023-03-26T15:19:00.929Z,99683.28
2023-03-26T15:24:26.562Z,99681.00
2023-03-26T15:29:57.346Z,99681.56
2023-03-26T15:35:42.729Z,99681.19
2023-03-26T15:40:54.583Z,99686.81
2023-03-26T15:46:27.326Z,99690.53
2023-03-26T15:51:47.542Z,99677.78
2023-03-26T15:57:15.596Z,99686.47
2023-03-26T16:02:29.557Z,99683.44
2023-03-26T16:07:53.639Z,99682.03
2023-03-26T16:13:20.791Z,99680.53
2023-03-26T16:18:34.849Z,99688.13
2023-03-26T16:23:53.948Z,99692.16
2023-03-26T16:29:11.777Z,99686.47
2023-03-26T16:34:28.041Z,99693.09
2023-03-26T16:39:42.259Z,99703.41
2023-03-26T16:44:50.961Z,99698.41
2023-03-26T16:50:10.407Z,99705.88
2023-03-26T16:55:20.793Z,99697.31
2023-03-26T17:00:42.709Z,99709.31
2023-03-26T17:06:02.717Z,99717.50
2023-03-26T17:11:15.912Z,99720.41
2023-03-26T17:16:23.652Z,99718.25
2023-03-26T17:21:45.732Z,99728.88
2023-03-26T17:27:00.339Z,99729.94
2023-03-26T17:32:09.268Z,99728.25
2023-03-26T17:37:40.757Z,99732.75
2023-03-26T17:49:22.430Z,99739.91
2023-03-26T17:54:30.425Z,99742.53
2023-03-26T17:59:32.731Z,99743.66
2023-03-26T18:04:38.793Z,99751.63
2023-03-26T18:09:55.973Z,99755.09
2023-03-26T18:15:30.369Z,99756.19
2023-03-26T18:20:36.548Z,99758.00
2023-03-26T18:25:38.719Z,99766.16
2023-03-26T18:30:48.446Z,99765.47
2023-03-26T18:35:54.807Z,99762.00
2023-03-26T18:40:56.833Z,99762.13
2023-03-26T18:45:59.747Z,99763.03
2023-03-26T18:51:06.010Z,99771.09
2023-03-26T18:56:19.592Z,99772.88
2023-03-26T19:01:25.923Z,99764.94
2023-03-26T19:06:30.298Z,99771.09
2023-03-26T19:11:32.853Z,99771.06
2023-03-26T19:16:35.742Z,99774.69
2023-03-26T19:21:39.778Z,99774.66
2023-03-26T19:26:42.900Z,99774.72
2023-03-26T19:31:50.838Z,99780.16
2023-03-26T19:36:56.774Z,99781.97
2023-03-26T19:41:59.213Z,99786.56
2023-03-26T19:47:02.987Z,99791.03
2023-03-26T19:52:13.511Z,99800.59
2023-03-26T19:57:16.259Z,99797.13
2023-03-26T20:02:18.883Z,99800.03
2023-03-26T20:07:35.597Z,99800.16
2023-03-26T20:12:38.434Z,99800.22
2023-03-26T20:17:40.580Z,99795.13
2023-03-26T20:22:44.539Z,99815.34
2023-03-26T20:27:46.646Z,99810.09
2023-03-26T20:32:48.978Z,99819.66
2023-03-26T20:37:53.056Z,99818.13
2023-03-26T20:42:54.790Z,99822.88
2023-03-26T20:47:56.988Z,99836.22
2023-03-26T20:53:00.145Z,99853.16
2023-03-26T20:58:02.754Z,99848.94
2023-03-26T21:03:05.379Z,99867.50
2023-03-26T21:08:15.195Z,99864.94
2023-03-26T21:13:30.605Z,99860.69
2023-03-26T21:18:33.229Z,99874.81
2023-03-26T21:23:40.596Z,99884.47
2023-03-26T21:28:46.552Z,99882.72
2023-03-26T21:33:49.582Z,99899.38
2023-03-26T21:38:53.704Z,99885.41
2023-03-26T21:43:55.495Z,99890.69
2023-03-26T21:48:58.308Z,99901.22
2023-03-26T21:54:02.489Z,99899.50
2023-03-26T21:59:11.565Z,99900.56
2023-03-26T22:04:19.888Z,99897.88
2023-03-26T22:09:35.594Z,99904.06
2023-03-26T22:14:38.887Z,99904.94
2023-03-26T22:19:40.586Z,99906.72
2023-03-26T22:24:43.893Z,99908.59
2023-03-26T22:29:45.642Z,99905.13
2023-03-26T22:34:47.710Z,99909.53
2023-03-26T22:39:50.796Z,99921.88
2023-03-26T22:44:52.999Z,99931.56
2023-03-26T22:49:54.796Z,99934.28
2023-03-26T22:54:58.053Z,99937.81
2023-03-26T23:00:00.064Z,99946.59
2023-03-26T23:05:02.221Z,99944.88
2023-03-26T23:10:06.991Z,99955.41
2023-03-26T23:15:10.439Z,99953.66
2023-03-26T23:20:12.676Z,99972.97
2023-03-26T23:25:16.161Z,99967.72
2023-03-26T23:30:18.509Z,99981.72
2023-03-26T23:35:20.489Z,99990.50
2023-03-26T23:40:23.542Z,100002.75
2023-03-26T23:45:25.571Z,100003.66
2023-03-26T23:50:27.659Z,100014.13
2023-03-26T23:55:31.124Z,100025.53
